McLouth, KS (66054)

6:41 AM CST on February 28, 2017 (GMT -0600)
KTGX | | Change Station

Elev 861 ft 39.12 °N, 95.06 °W | Updated 1 second ago

Mostly Cloudy
Mostly Cloudy
61.8 °F
Feels Like 61.8 °F
N
0.0
Wind Variable Wind from WNW
Gusts 0.0 mph

Today
High -- | Low -- °F
--% Chance of Precip.
Yesterday
High -- | Low -- °F
Precip. -- in
Pressure 29.65 in
Visibility 9.0 miles
Clouds Clear
Dew Point 62 °F
Humidity 100%
Rainfall 0.00 in
Snow Depth Not available.
6:54 AM 6:12 PM
Waxing Crescent, 5% visible
METAR KTOP 281153Z AUTO 20010KT 9SM CLR 17/15 A2966 RMK AO2 SLP041 T01670150 10183 20161 55000
Pressure 29.65 in
Visibility 9.0 miles
Clouds Clear
Dew Point 62 °F
Humidity 100%
Rainfall 0.00 in
Snow Depth Not available.
6:54 AM 6:12 PM
Waxing Crescent, 5% visible
METAR KTOP 281153Z AUTO 20010KT 9SM CLR 17/15 A2966 RMK AO2 SLP041 T01670150 10183 20161 55000

Get Your Daily Forecast Email!

Thanks for signing up!

Be on the lookout for a verification email in your inbox.

You'll start receiving the daily forecast at 8 AM.

×

10-Day Weather Forecast

Almanac

Astronomy

Feb. 28, 2017 Rise Set
Actual Time
Civil Twilight
Nautical Twilight
Astronomical Twilight
Moon
Length of Visible Light
Length of Day
Tomorrow will be .
, % of the Moon is Illuminated

Today's Extremes

State Highs State Lows

Community

WunderPhotos

Upload Photos

1,962,540 photos uploaded!

WunderBlog® & News

Nearby

Air Quality

  Air Quality AQ Index Pollutant
Not available.

Snow Depth

Station Depth Elevation

Earthquake Activity

City Distance Mag. Time & Date
Minimum magnitude displayed is 2.5.

Coastal Water Temperatures

Place Temperature

Stations

Nearby Weather Stations

Station Location Temp. Windchill Dew Point Humidity Wind Precip. Elev Updated Type
                   

Watches & Warnings

There are currently no watches in effect.